Time;durP1;ratioP1;P1;durP2;ratioP2;P2;SDS_P1;SDS_P2;PMS_P1;PMS_P2;Temp;Humidity;BMP_temperature;BMP_pressure;BME280_temperature;BME280_humidity;BME280_pressure;Samples;Min_cycle;Max_cycle;Signal;HPM_P1;HPM_P2
2023/10/10 00:00:35;;;;;;;25.70;15.70;;;;;;;13.96;100.00;101992.84;5059802;28;20056;-74
2023/10/10 00:03:05;;;;;;;23.88;14.93;;;;;;;13.99;100.00;102005.88;5059898;28;20489;-74
2023/10/10 00:05:36;;;;;;;21.85;13.82;;;;;;;13.95;100.00;102009.94;5057702;28;20665;-74
2023/10/10 00:08:02;;;;;;;22.95;15.65;;;;;;;13.88;100.00;102003.69;5059278;28;20037;-74
2023/10/10 00:10:30;;;;;;;23.20;15.40;;;;;;;13.93;100.00;102003.13;5062531;28;20032;-74
2023/10/10 00:12:56;;;;;;;25.35;17.38;;;;;;;13.94;100.00;102010.16;5046845;28;20503;-74
2023/10/10 00:15:32;;;;;;;24.30;15.75;;;;;;;13.94;100.00;102007.47;5044153;28;20055;-74
2023/10/10 00:18:02;;;;;;;25.58;14.55;;;;;;;13.94;100.00;102019.03;5041225;28;20593;-74
2023/10/10 00:20:35;;;;;;;22.48;14.30;;;;;;;13.88;100.00;102016.25;5039590;28;20086;-74
2023/10/10 00:23:04;;;;;;;24.73;16.77;;;;;;;13.90;100.00;102009.69;5061438;28;20025;-74
2023/10/10 00:25:32;;;;;;;23.65;15.13;;;;;;;13.92;100.00;102010.34;5057048;28;20105;-74
2023/10/10 00:28:17;;;;;;;24.40;15.57;;;;;;;13.91;100.00;102015.88;5062972;28;20039;-74
2023/10/10 00:30:45;;;;;;;24.45;15.43;;;;;;;13.91;100.00;102011.38;5058456;28;20472;-74
2023/10/10 00:33:21;;;;;;;24.58;13.65;;;;;;;13.89;100.00;102008.03;5056644;28;20032;-74
2023/10/10 00:35:47;;;;;;;25.25;15.93;;;;;;;13.83;100.00;102006.09;5056621;28;20033;-74
2023/10/10 00:38:22;;;;;;;25.73;14.13;;;;;;;13.74;100.00;102002.72;5062318;28;20032;-74
2023/10/10 00:40:48;;;;;;;21.10;13.10;;;;;;;13.73;100.00;102006.44;5060936;28;20515;-74
2023/10/10 00:43:17;;;;;;;20.88;13.57;;;;;;;13.70;100.00;102009.50;5060957;28;20142;-74
2023/10/10 00:45:52;;;;;;;23.58;13.52;;;;;;;13.66;100.00;102008.19;5060262;28;20039;-74
2023/10/10 00:48:22;;;;;;;20.83;11.98;;;;;;;13.61;100.00;102009.78;5060207;28;20055;-74
2023/10/10 00:50:53;;;;;;;20.55;11.30;;;;;;;13.53;100.00;102011.53;5061037;28;20016;-74
2023/10/10 00:53:22;;;;;;;18.15;11.25;;;;;;;13.48;100.00;102005.09;5053112;28;20370;-74
2023/10/10 00:55:56;;;;;;;20.45;12.77;;;;;;;13.42;100.00;102003.16;5061675;28;20020;-74
2023/10/10 00:58:24;;;;;;;21.38;12.25;;;;;;;13.41;100.00;102009.53;5060992;28;20437;-74
2023/10/10 01:00:54;;;;;;;23.63;12.77;;;;;;;13.30;100.00;102002.78;5060775;28;20029;-74
2023/10/10 01:03:22;;;;;;;19.67;11.25;;;;;;;13.24;100.00;102007.03;5041427;28;20913;-74
2023/10/10 01:05:54;;;;;;;19.90;10.48;;;;;;;13.14;100.00;102001.94;5060707;28;20136;-74
2023/10/10 01:08:23;;;;;;;18.15;9.63;;;;;;;13.07;100.00;102000.19;5060136;28;20024;-74
2023/10/10 01:10:49;;;;;;;18.77;9.95;;;;;;;13.05;100.00;101992.34;5061441;28;20028;-74
2023/10/10 01:13:16;;;;;;;20.30;11.52;;;;;;;13.05;100.00;101987.00;5037783;28;20082;-74
2023/10/10 01:15:43;;;;;;;21.35;13.02;;;;;;;13.07;100.00;101979.63;5061888;28;20123;-74
2023/10/10 01:18:13;;;;;;;21.15;11.98;;;;;;;13.12;100.00;101979.03;5055711;28;20673;-74
2023/10/10 01:20:45;;;;;;;23.05;13.20;;;;;;;13.13;100.00;101978.84;5054929;28;20491;-74
2023/10/10 01:23:15;;;;;;;21.95;12.00;;;;;;;13.09;100.00;101982.91;5058262;28;20055;-74
2023/10/10 01:25:42;;;;;;;21.95;10.98;;;;;;;13.10;100.00;101973.88;5060645;28;20495;-74
2023/10/10 01:28:33;;;;;;;18.10;10.73;;;;;;;13.07;100.00;101968.91;5058780;28;20032;-74
2023/10/10 01:31:03;;;;;;;19.83;12.50;;;;;;;13.08;100.00;101964.38;5060975;28;20045;-74
2023/10/10 01:33:36;;;;;;;20.35;12.73;;;;;;;13.07;100.00;101960.88;5056655;28;20506;-74
2023/10/10 01:36:20;;;;;;;23.30;14.32;;;;;;;13.09;100.00;101958.81;5059062;28;20033;-74
2023/10/10 01:39:06;;;;;;;24.60;14.40;;;;;;;13.13;100.00;101960.09;5058796;28;20086;-74
2023/10/10 01:41:38;;;;;;;21.50;12.63;;;;;;;13.13;100.00;101943.22;5058118;28;20158;-74
2023/10/10 01:44:17;;;;;;;23.30;14.52;;;;;;;13.13;100.00;101944.03;5065186;28;20116;-74
2023/10/10 01:46:43;;;;;;;25.38;14.65;;;;;;;13.11;100.00;101938.03;5056196;28;20083;-74
2023/10/10 01:49:20;;;;;;;25.75;14.98;;;;;;;13.12;100.00;101945.03;5040636;28;20492;-74
2023/10/10 01:51:50;;;;;;;26.52;12.60;;;;;;;13.08;100.00;101940.25;5058201;28;20391;-74
2023/10/10 01:54:19;;;;;;;20.70;13.20;;;;;;;13.03;100.00;101946.16;5055547;28;21113;-74
2023/10/10 01:56:45;;;;;;;21.27;13.35;;;;;;;12.96;100.00;101942.56;5056029;28;20035;-74
2023/10/10 01:59:17;;;;;;;24.35;13.52;;;;;;;12.92;100.00;101928.72;5058569;28;20416;-74
2023/10/10 02:01:42;;;;;;;;;;;;;;;13.05;100.00;101935.28;5057552;28;20020;-74
2023/10/10 02:04:08;;;;;;;23.63;16.10;;;;;;;13.03;100.00;101927.41;5062943;28;20256;-74
2023/10/10 02:06:39;;;;;;;19.13;13.43;;;;;;;13.03;100.00;101926.59;5054896;28;20151;-74
2023/10/10 02:11:54;;;;;;;23.63;14.00;;;;;;;13.03;100.00;101922.06;5060891;28;20291;-74
2023/10/10 02:14:25;;;;;;;21.27;14.13;;;;;;;13.04;100.00;101920.22;5058542;28;20107;-74
2023/10/10 02:16:54;;;;;;;22.25;14.38;;;;;;;13.02;100.00;101914.19;5056586;28;20037;-74
2023/10/10 02:19:28;;;;;;;19.60;12.95;;;;;;;12.94;100.00;101915.13;5058042;28;20519;-74
2023/10/10 02:27:56;;;;;;;20.70;12.80;;;;;;;12.81;100.00;101915.81;4975946;28;20042;-74
2023/10/10 02:30:35;;;;;;;22.42;11.82;;;;;;;12.79;100.00;101917.84;5022006;28;20039;-74
2023/10/10 02:33:14;;;;;;;24.15;13.73;;;;;;;12.71;100.00;101905.38;5051281;28;20044;-74
2023/10/10 02:35:54;;;;;;;19.38;12.20;;;;;;;12.58;100.00;101893.66;5060421;28;20068;-74
2023/10/10 02:38:40;;;;;;;20.77;11.88;;;;;;;12.61;100.00;101907.50;5065048;28;20494;-74
2023/10/10 02:46:37;;;;;;;20.48;13.02;;;;;;;12.47;100.00;101900.28;5064179;28;20554;-74
2023/10/10 02:49:13;;;;;;;20.70;13.90;;;;;;;12.44;100.00;101893.47;5060090;28;20036;-74
2023/10/10 02:51:48;;;;;;;18.85;11.50;;;;;;;12.41;100.00;101890.31;5059501;28;20684;-74
2023/10/10 02:54:27;;;;;;;19.65;12.38;;;;;;;12.42;100.00;101902.69;5059226;28;20080;-74
2023/10/10 02:56:57;;;;;;;21.05;13.27;;;;;;;12.34;100.00;101889.38;5061297;28;20032;-74
2023/10/10 02:59:31;;;;;;;20.38;12.57;;;;;;;12.37;100.00;101902.41;5063097;28;20028;-74
2023/10/10 03:01:59;;;;;;;19.10;12.68;;;;;;;12.37;100.00;101902.41;5055184;28;20021;-74
2023/10/10 03:04:52;;;;;;;20.52;12.32;;;;;;;12.32;100.00;101894.09;5057117;28;20032;-74
2023/10/10 03:07:10;;;;;;;18.55;11.45;;;;;;;12.39;100.00;101911.91;5045033;28;20037;-74
2023/10/10 03:10:06;;;;;;;17.20;10.60;;;;;;;12.37;100.00;101911.25;5060287;28;20041;-74
2023/10/10 03:12:27;;;;;;;18.80;12.30;;;;;;;12.38;100.00;101898.72;5058071;28;20037;-74
2023/10/10 03:14:53;;;;;;;22.00;14.63;;;;;;;12.41;100.00;101888.47;5062826;28;20544;-74
2023/10/10 03:17:44;;;;;;;23.67;15.88;;;;;;;12.46;100.00;101901.28;5041743;28;20214;-74
2023/10/10 03:26:18;;;;;;;24.42;14.68;;;;;;;12.44;100.00;101898.81;5062373;28;20430;-74
2023/10/10 03:28:41;;;;;;;26.45;16.73;;;;;;;12.46;100.00;101891.41;5058554;28;20032;-74
2023/10/10 05:25:13;;;;;;;33.53;21.25;;;;;;;12.58;100.00;101834.78;5058144;28;20502;-74
2023/10/10 05:27:41;;;;;;;33.00;21.33;;;;;;;12.53;100.00;101832.66;5057603;28;20074;-74
2023/10/10 05:30:25;;;;;;;30.30;20.40;;;;;;;12.56;100.00;101837.63;5062145;28;20118;-74
2023/10/10 05:33:07;;;;;;;33.15;22.38;;;;;;;12.55;100.00;101843.16;5055045;28;20036;-75
2023/10/10 05:35:39;;;;;;;33.15;21.73;;;;;;;12.56;100.00;101834.13;5043923;28;20395;-74
2023/10/10 05:38:07;;;;;;;36.00;21.20;;;;;;;12.52;100.00;101827.47;5063455;28;20391;-74
2023/10/10 05:40:33;;;;;;;30.77;19.98;;;;;;;12.49;100.00;101826.00;5038510;28;20416;-75
2023/10/10 05:43:03;;;;;;;30.30;20.83;;;;;;;12.52;100.00;101827.47;5042477;28;20020;-75
2023/10/10 05:45:31;;;;;;;30.38;19.58;;;;;;;12.51;100.00;101815.94;5061995;28;20037;-75
2023/10/10 05:47:57;;;;;;;32.83;20.23;;;;;;;12.50;100.00;101822.34;5062681;28;20548;-74
2023/10/10 05:50:22;;;;;;;29.85;19.17;;;;;;;12.49;100.00;101821.47;5053132;28;20037;-74
2023/10/10 05:52:49;;;;;;;30.67;20.05;;;;;;;12.49;100.00;101829.50;5060686;28;20040;-74
2023/10/10 05:55:17;;;;;;;32.10;22.60;;;;;;;12.48;100.00;101825.19;5061463;28;20439;-74
2023/10/10 05:57:42;;;;;;;33.63;21.65;;;;;;;12.45;100.00;101822.88;5058972;28;20032;-75
2023/10/10 06:00:13;;;;;;;30.52;19.02;;;;;;;12.45;100.00;101824.72;5039844;28;20369;-74
2023/10/10 06:02:45;;;;;;;30.13;18.17;;;;;;;12.45;100.00;101830.09;5041649;28;20063;-74
2023/10/10 06:05:12;;;;;;;32.25;19.77;;;;;;;12.41;100.00;101831.44;5057630;28;20550;-74
2023/10/10 06:07:43;;;;;;;26.60;16.92;;;;;;;12.41;100.00;101834.13;5055114;28;20025;-74
2023/10/10 06:10:15;;;;;;;28.08;18.10;;;;;;;12.39;100.00;101823.63;5060156;28;20032;-74
2023/10/10 06:12:47;;;;;;;29.27;17.55;;;;;;;12.40;100.00;101825.28;5058662;28;20024;-74
2023/10/10 06:15:17;;;;;;;27.65;17.73;;;;;;;12.32;100.00;101817.34;5059093;28;20935;-74
2023/10/10 06:17:48;;;;;;;30.33;18.23;;;;;;;12.39;100.00;101828.13;5059044;28;20082;-75
2023/10/10 06:20:16;;;;;;;29.50;19.10;;;;;;;12.36;100.00;101815.94;5040302;28;20051;-74
2023/10/10 06:22:47;;;;;;;29.20;18.55;;;;;;;12.35;100.00;101814.28;5039725;28;20057;-75
2023/10/10 06:25:17;;;;;;;28.42;16.70;;;;;;;12.40;100.00;101819.94;5060285;28;20142;-74
2023/10/10 06:27:45;;;;;;;35.22;17.80;;;;;;;12.40;100.00;101822.59;5041102;28;20033;-74
2023/10/10 06:30:19;;;;;;;28.20;17.27;;;;;;;12.36;100.00;101812.44;5058088;28;20032;-74
2023/10/10 06:32:46;;;;;;;30.00;19.88;;;;;;;12.35;100.00;101814.28;5057387;28;20039;-75
2023/10/10 06:35:37;;;;;;;25.70;15.63;;;;;;;12.39;100.00;101818.28;5057488;28;20028;-75
2023/10/10 06:37:58;;;;;;;27.55;17.58;;;;;;;12.42;100.00;101825.09;5063405;28;20508;-75
2023/10/10 06:40:29;;;;;;;26.63;15.75;;;;;;;12.43;100.00;101819.56;5063944;28;20037;-75
2023/10/10 06:42:56;;;;;;;27.33;16.50;;;;;;;12.43;100.00;101822.22;5066590;28;20036;-75
2023/10/10 06:45:26;;;;;;;28.08;17.50;;;;;;;12.43;100.00;101811.53;5058588;28;20136;-75
2023/10/10 06:47:52;;;;;;;27.10;16.98;;;;;;;12.49;100.00;101817.97;5060204;28;20028;-75
2023/10/10 06:50:24;;;;;;;26.75;16.60;;;;;;;12.52;100.00;101814.09;5060725;28;20043;-75
2023/10/10 06:52:53;;;;;;;25.42;15.65;;;;;;;12.53;100.00;101819.28;5062589;28;20048;-73
2023/10/10 06:55:22;;;;;;;27.63;16.27;;;;;;;12.56;100.00;101813.56;5065671;28;20169;-74
2023/10/10 06:58:01;;;;;;;25.75;16.73;;;;;;;12.55;100.00;101801.19;5056978;28;20538;-74
2023/10/10 07:00:28;;;;;;;26.38;15.65;;;;;;;12.63;100.00;101814.47;5066265;28;20021;-73
2023/10/10 07:02:56;;;;;;;27.30;15.57;;;;;;;12.66;100.00;101805.25;5042777;28;20396;-73
2023/10/10 07:05:26;;;;;;;26.80;15.35;;;;;;;12.65;100.00;101812.44;5062012;28;20037;-73
2023/10/10 07:07:57;;;;;;;23.92;15.20;;;;;;;12.72;100.00;101813.34;5056692;28;20032;-73
2023/10/10 07:10:26;;;;;;;26.97;14.77;;;;;;;12.76;100.00;101815.63;5068736;28;20036;-73
2023/10/10 07:12:58;;;;;;;24.75;15.30;;;;;;;12.82;100.00;101817.59;5056592;28;20036;-73
2023/10/10 07:15:24;;;;;;;28.42;16.15;;;;;;;12.86;100.00;101816.16;5060256;28;20502;-73
2023/10/10 07:18:00;;;;;;;24.80;15.30;;;;;;;12.91;100.00;101809.22;5057328;28;20032;-73
2023/10/10 07:23:10;;;;;;;25.10;15.23;;;;;;;13.03;100.00;101812.25;5058427;28;20106;-73
2023/10/10 07:25:43;;;;;;;25.60;15.07;;;;;;;13.09;100.00;101810.66;5044430;28;20037;-73
2023/10/10 07:28:13;;;;;;;26.48;14.57;;;;;;;13.12;100.00;101805.75;5039414;28;20459;-73
2023/10/10 07:30:43;;;;;;;25.73;16.20;;;;;;;13.20;100.00;101803.97;5057654;28;20052;-71
2023/10/10 07:33:13;;;;;;;25.55;14.32;;;;;;;13.23;100.00;101801.78;5061526;28;20460;-72
2023/10/10 07:35:43;;;;;;;23.05;14.70;;;;;;;13.32;100.00;101800.63;5057239;28;20098;-74
2023/10/10 07:38:09;;;;;;;26.67;14.70;;;;;;;13.34;100.00;101798.59;5043197;28;20384;-76
2023/10/10 07:40:37;;;;;;;25.38;15.40;;;;;;;13.44;100.00;101800.13;5052848;28;20086;-76
2023/10/10 07:43:03;;;;;;;24.45;16.15;;;;;;;13.51;100.00;101803.69;5054508;28;20032;-76
2023/10/10 07:45:52;;;;;;;23.13;13.80;;;;;;;13.54;100.00;101796.09;5050879;28;20120;-76
2023/10/10 07:50:56;;;;;;;24.40;15.48;;;;;;;13.71;100.00;101798.50;5070407;28;20551;-76
2023/10/10 07:53:28;;;;;;;26.67;14.00;;;;;;;13.76;100.00;101790.72;5062609;28;20523;-75
2023/10/10 07:58:23;;;;;;;25.55;13.73;;;;;;;13.88;100.00;101802.53;5051274;28;20052;-74
2023/10/10 08:00:54;;;;;;;21.98;14.50;;;;;;;13.92;100.00;101801.16;5033357;28;20032;-75
2023/10/10 08:03:19;;;;;;;27.17;15.60;;;;;;;13.99;100.00;101812.75;5033383;28;20044;-75
2023/10/10 08:05:50;;;;;;;25.75;15.65;;;;;;;14.08;100.00;101810.75;5051331;28;20032;-74
2023/10/10 08:08:18;;;;;;;28.00;16.08;;;;;;;14.13;100.00;101816.34;5051357;28;20113;-73
2023/10/10 08:10:49;;;;;;;26.88;16.23;;;;;;;14.17;100.00;101808.72;5033389;28;20033;-75
2023/10/10 08:13:20;;;;;;;24.00;13.65;;;;;;;14.22;100.00;101809.78;5051450;28;20033;-74
2023/10/10 08:15:56;;;;;;;27.25;15.48;;;;;;;14.31;100.00;101821.22;5051002;28;20048;-74
2023/10/10 08:21:09;;;;;;;26.88;15.75;;;;;;;14.40;100.00;101805.78;5051346;28;20033;-73
2023/10/10 08:23:36;;;;;;;25.15;14.57;;;;;;;14.50;100.00;101813.47;5050679;28;20551;-73
2023/10/10 08:26:01;;;;;;;27.23;16.20;;;;;;;14.57;100.00;101809.81;5050936;28;20033;-73
2023/10/10 08:28:27;;;;;;;23.73;13.63;;;;;;;14.62;100.00;101803.88;5032854;28;20057;-73
2023/10/10 08:30:55;;;;;;;24.30;14.80;;;;;;;14.70;100.00;101809.06;5054920;28;20535;-73
2023/10/10 08:33:20;;;;;;;27.98;15.98;;;;;;;14.74;100.00;101799.56;5069734;28;20086;-73
2023/10/10 08:35:46;;;;;;;23.38;15.52;;;;;;;14.88;100.00;101809.34;5036162;28;20029;-74
2023/10/10 08:38:14;;;;;;;27.92;15.48;;;;;;;14.90;100.00;101799.19;5050707;28;20453;-74
2023/10/10 08:40:43;;;;;;;23.30;13.77;;;;;;;14.96;100.00;101802.94;5050581;28;20060;-74
2023/10/10 08:43:11;;;;;;;24.95;13.75;;;;;;;14.96;100.00;101794.03;5050778;28;20391;-73
2023/10/10 08:45:40;;;;;;;28.20;15.02;;;;;;;15.10;100.00;101803.81;5050461;28;20037;-73
2023/10/10 08:48:12;;;;;;;24.17;14.25;;;;;;;15.17;100.00;101803.81;5050623;28;20037;-72
2023/10/10 08:50:44;;;;;;;23.10;13.32;;;;;;;15.24;100.00;101810.84;5061023;28;20495;-72
2023/10/10 08:53:12;;;;;;;;;;;;;;;15.31;100.00;101818.94;5050880;28;20396;-72
2023/10/10 08:55:41;;;;;;;26.55;15.40;;;;;;;15.30;100.00;101820.81;5050417;28;20417;-72
2023/10/10 08:58:08;;;;;;;22.67;13.00;;;;;;;15.39;100.00;101820.59;5038984;28;20028;-72
2023/10/10 09:00:34;;;;;;;25.38;14.15;;;;;;;15.42;100.00;101817.50;5060916;28;20444;-75
2023/10/10 09:03:00;;;;;;;23.00;13.52;;;;;;;15.50;100.00;101826.19;5057511;28;20118;-75
2023/10/10 09:05:29;;;;;;;23.42;14.68;;;;;;;15.52;100.00;101818.75;5068223;28;20127;-75
2023/10/10 09:07:55;;;;;;;26.02;14.30;;;;;;;15.62;100.00;101821.03;5051093;28;20387;-75
2023/10/10 09:10:28;;;;;;;23.98;13.88;;;;;;;15.63;100.00;101822.69;5050144;28;20036;-75
2023/10/10 09:13:01;;;;;;;24.05;14.05;;;;;;;15.71;100.00;101814.44;5049949;28;20119;-74
2023/10/10 09:15:27;;;;;;;32.15;13.70;;;;;;;15.74;100.00;101808.63;5050053;28;20029;-75
2023/10/10 09:18:15;;;;;;;22.50;12.57;;;;;;;15.90;100.00;101812.78;5063392;28;20135;-74
2023/10/10 09:20:40;;;;;;;22.58;11.63;;;;;;;15.90;100.00;101802.03;5069090;28;20028;-76
2023/10/10 09:23:22;;;;;;;20.00;11.90;;;;;;;16.10;100.00;101811.94;5068802;28;20610;-73
2023/10/10 09:26:52;;;;;;;21.33;11.15;;;;;;;16.15;100.00;101812.97;5069654;28;20440;-74
2023/10/10 09:28:49;;;;;;;20.48;11.32;;;;;;;16.21;100.00;101809.41;5050738;28;20032;-75
2023/10/10 09:31:26;;;;;;;21.75;11.85;;;;;;;16.36;100.00;101813.75;5066111;28;20040;-74
2023/10/10 09:33:55;;;;;;;22.25;12.40;;;;;;;16.51;100.00;101816.19;5054908;28;20195;-75
2023/10/10 09:36:26;;;;;;;22.55;12.10;;;;;;;16.58;100.00;101811.59;5068808;28;20039;-75
2023/10/10 09:38:55;;;;;;;24.42;12.02;;;;;;;16.69;100.00;101818.16;5068838;28;20055;-75
2023/10/10 09:47:40;;;;;;;23.77;11.65;;;;;;;16.75;100.00;101826.25;5049217;28;20074;-75
2023/10/10 09:57:58;;;;;;;20.75;10.05;;;;;;;17.29;100.00;101816.00;5050387;28;20627;-75
2023/10/10 10:00:31;;;;;;;18.65;10.02;;;;;;;17.36;100.00;101814.09;5061761;28;20029;-75
2023/10/10 10:03:00;;;;;;;18.85;10.18;;;;;;;17.53;100.00;101817.13;5047896;28;20100;-74
2023/10/10 10:05:28;;;;;;;19.80;10.82;;;;;;;17.66;100.00;101810.78;5011936;28;20439;-74
2023/10/10 10:08:06;;;;;;;21.23;10.73;;;;;;;17.72;100.00;101808.03;5045926;28;20024;-75
2023/10/10 10:10:52;;;;;;;19.30;9.73;;;;;;;17.80;100.00;101793.47;5045943;28;20155;-74
2023/10/10 10:13:38;;;;;;;19.65;9.43;;;;;;;17.85;100.00;101801.72;5045643;28;20021;-77
2023/10/10 10:16:15;;;;;;;14.95;7.93;;;;;;;17.96;100.00;101806.38;5045939;28;20430;-76
2023/10/10 10:18:45;;;;;;;17.42;8.13;;;;;;;18.06;100.00;101807.75;5049069;28;20025;-76
2023/10/10 10:21:19;;;;;;;17.85;9.38;;;;;;;18.12;100.00;101807.66;5061568;28;20017;-75
2023/10/10 10:23:47;;;;;;;15.82;8.50;;;;;;;18.13;100.00;101814.75;5063071;28;20032;-72
2023/10/10 10:26:31;;;;;;;20.63;8.02;;;;;;;18.22;100.00;101815.25;5045611;28;20033;-73
2023/10/10 10:28:57;;;;;;;20.95;9.25;;;;;;;18.25;100.00;101812.13;5045442;28;20029;-74
2023/10/10 10:31:29;;;;;;;14.40;7.68;;;;;;;18.26;100.00;101805.69;5041396;28;20048;-74
2023/10/10 10:34:10;;;;;;;20.88;8.48;;;;;;;18.26;100.00;101802.97;5044554;28;20100;-74
2023/10/10 10:36:43;;;;;;;17.52;8.45;;;;;;;18.27;100.00;101810.03;5053061;28;20492;-77
2023/10/10 10:39:19;;;;;;;18.45;8.00;;;;;;;18.32;100.00;101801.25;5060292;28;20144;-72
2023/10/10 10:41:53;;;;;;;16.73;8.05;;;;;;;18.39;100.00;101802.81;5039093;28;20119;-74
2023/10/10 10:44:58;;;;;;;19.45;9.60;;;;;;;18.52;100.00;101792.91;5058430;28;20029;-70
2023/10/10 10:47:39;;;;;;;16.35;6.97;;;;;;;18.62;100.00;101798.59;5033453;28;20048;-71
2023/10/10 10:50:17;;;;;;;24.13;8.50;;;;;;;18.76;100.00;101792.00;5060829;28;20078;-70
2023/10/10 10:52:48;;;;;;;18.50;8.45;;;;;;;18.89;100.00;101787.47;5057225;28;20446;-71
2023/10/10 10:55:22;;;;;;;18.70;8.38;;;;;;;18.94;100.00;101790.31;5051890;28;20121;-70
2023/10/10 10:57:49;;;;;;;15.88;7.82;;;;;;;19.08;100.00;101785.56;5055583;28;20116;-71
2023/10/10 11:00:40;;;;;;;18.98;7.82;;;;;;;19.10;100.00;101786.97;5047657;28;20135;-71
2023/10/10 11:03:11;;;;;;;20.50;9.60;;;;;;;19.15;99.14;101789.81;5057616;28;20040;-72
2023/10/10 11:05:39;;;;;;;14.02;6.55;;;;;;;19.19;99.01;101777.47;5032515;28;20021;-71
2023/10/10 11:08:11;;;;;;;16.30;7.65;;;;;;;19.26;100.00;101783.59;5063509;28;20040;-71
2023/10/10 11:10:37;;;;;;;15.00;7.82;;;;;;;19.33;99.69;101782.66;5059221;28;20036;-71
2023/10/10 11:13:09;;;;;;;16.45;8.38;;;;;;;19.40;99.57;101780.69;5056416;28;20036;-71
2023/10/10 11:15:39;;;;;;;17.67;7.60;;;;;;;19.47;97.28;101778.69;5038779;28;20360;-71
2023/10/10 11:18:07;;;;;;;18.38;7.55;;;;;;;19.52;97.26;101768.00;5059596;28;20510;-71
2023/10/10 11:20:55;;;;;;;17.98;8.05;;;;;;;19.59;97.34;101757.88;5055629;28;20154;-71
2023/10/10 11:23:21;;;;;;;18.33;7.82;;;;;;;19.66;95.46;101755.91;5064999;28;20037;-71
2023/10/10 11:25:58;;;;;;;16.90;7.43;;;;;;;19.76;95.68;101758.03;5049739;28;20025;-71
2023/10/10 11:28:36;;;;;;;18.52;8.65;;;;;;;19.89;95.45;101756.97;5035118;28;20159;-72
2023/10/10 11:31:07;;;;;;;19.92;7.68;;;;;;;19.95;94.18;101749.78;5053721;28;20467;-71
2023/10/10 11:36:21;;;;;;;16.27;6.70;;;;;;;20.04;93.67;101751.06;5054860;28;20102;-71
2023/10/10 11:38:55;;;;;;;14.75;7.63;;;;;;;20.06;92.11;101740.81;5037012;28;20119;-71
2023/10/10 11:41:29;;;;;;;14.07;6.13;;;;;;;20.15;93.13;101744.81;5051621;28;20025;-71
2023/10/10 11:44:01;;;;;;;12.95;6.57;;;;;;;20.18;91.01;101738.09;5057768;28;20079;-72
2023/10/10 11:46:27;;;;;;;19.23;6.85;;;;;;;20.28;91.02;101741.84;5058307;28;20043;-72
2023/10/10 11:48:54;;;;;;;18.52;7.28;;;;;;;20.31;88.64;101732.41;5050747;28;20182;-70
2023/10/10 11:51:33;;;;;;;22.00;7.95;;;;;;;20.37;91.85;101734.16;5063238;28;20082;-75
2023/10/10 11:53:59;;;;;;;15.05;6.38;;;;;;;20.48;88.26;101730.56;5052808;28;20510;-73
2023/10/10 11:56:25;;;;;;;17.63;6.82;;;;;;;20.52;87.71;101731.75;5052398;28;20041;-73
2023/10/10 11:58:52;;;;;;;13.32;5.90;;;;;;;20.57;89.61;101734.56;5070374;28;20036;-74
2023/10/10 12:01:47;;;;;;;16.80;6.82;;;;;;;20.58;88.71;101728.09;5070569;28;20036;-75
2023/10/10 12:04:20;;;;;;;12.70;5.05;;;;;;;20.68;89.87;101718.50;5050982;28;20089;-73
2023/10/10 12:06:47;;;;;;;13.93;5.35;;;;;;;20.77;85.83;101725.16;5057683;28;20498;-73
2023/10/10 12:09:18;;;;;;;10.35;5.38;;;;;;;20.82;83.61;101706.28;5035867;28;20032;-73
2023/10/10 12:11:44;;;;;;;;;;;;;;;20.92;92.35;101713.78;5070908;28;20479;-73
2023/10/10 12:14:11;;;;;;;12.50;5.80;;;;;;;20.92;84.92;101706.47;5070364;28;19917;-74
2023/10/10 12:16:37;;;;;;;15.55;4.88;;;;;;;20.98;84.32;101710.06;5051023;28;20298;-73
2023/10/10 12:19:05;;;;;;;12.68;5.80;;;;;;;21.02;82.99;101711.25;5050966;28;20024;-73
2023/10/10 12:21:31;;;;;;;16.52;5.55;;;;;;;21.07;81.97;101705.91;5057039;28;20036;-72
2023/10/10 12:23:57;;;;;;;14.65;6.43;;;;;;;21.10;81.52;101701.88;5070178;28;20143;-73
2023/10/10 12:26:23;;;;;;;14.73;5.65;;;;;;;21.17;85.03;101697.94;5070218;28;20025;-73
2023/10/10 12:28:52;;;;;;;11.82;4.90;;;;;;;21.22;84.65;101708.03;5058331;28;20043;-71
2023/10/10 12:31:18;;;;;;;15.85;5.15;;;;;;;21.31;83.46;101697.59;5048652;28;20037;-73
2023/10/10 12:33:53;;;;;;;11.77;4.55;;;;;;;21.34;82.98;101683.53;5048903;28;20040;-72
2023/10/10 12:36:22;;;;;;;19.30;6.05;;;;;;;21.37;81.01;101688.47;5050797;28;20119;-70
2023/10/10 12:38:48;;;;;;;11.85;4.88;;;;;;;21.40;82.11;101685.28;5055468;28;20047;-70
2023/10/10 12:41:20;;;;;;;16.27;6.32;;;;;;;21.44;82.22;101684.53;5060736;28;20025;-70
2023/10/10 12:43:45;;;;;;;;;;;;;;;21.52;85.73;101687.91;5055977;28;20032;-72
2023/10/10 12:46:14;;;;;;;14.27;6.47;;;;;;;21.47;77.39;101685.94;5059323;28;19921;-75
2023/10/10 12:48:39;;;;;;;17.75;6.60;;;;;;;21.45;77.03;101680.75;5056892;28;20466;-77
2023/10/10 12:51:09;;;;;;;9.48;4.22;;;;;;;21.48;76.88;101681.31;5050390;28;20032;-75
2023/10/10 12:53:39;;;;;;;14.43;5.35;;;;;;;21.48;77.71;101673.19;5050207;28;20045;-75
2023/10/10 12:56:05;;;;;;;14.93;5.40;;;;;;;21.44;76.28;101664.72;5049669;28;20024;-73
2023/10/10 12:58:32;;;;;;;14.80;6.68;;;;;;;21.44;74.56;101670.16;5049906;28;20037;-75
2023/10/10 13:00:58;;;;;;;12.40;5.20;;;;;;;21.51;75.29;101669.97;5056971;28;20025;-71
2023/10/10 13:03:29;;;;;;;10.40;5.07;;;;;;;21.58;75.80;101676.03;5060046;28;20506;-71
2023/10/10 13:06:00;;;;;;;10.73;4.93;;;;;;;21.61;74.14;101670.09;5061430;28;20098;-72
2023/10/10 13:08:25;;;;;;;10.23;4.78;;;;;;;21.64;73.85;101666.88;5058815;28;20020;-72
2023/10/10 13:10:54;;;;;;;10.32;4.43;;;;;;;21.70;74.90;101676.75;5059921;28;20033;-72
2023/10/10 13:13:31;;;;;;;10.88;4.07;;;;;;;21.70;72.64;101668.63;5062590;28;20060;-72
2023/10/10 13:16:22;;;;;;;9.80;4.30;;;;;;;21.74;73.13;101672.44;5058106;28;20046;-72
2023/10/10 13:18:57;;;;;;;17.43;4.97;;;;;;;21.77;75.67;101660.25;5059298;28;20033;-72
2023/10/10 13:21:23;;;;;;;9.75;4.30;;;;;;;21.86;71.43;101673.16;5061037;28;20149;-72
2023/10/10 13:23:50;;;;;;;11.88;5.18;;;;;;;21.95;71.04;101670.00;5062216;28;20025;-72
2023/10/10 13:26:22;;;;;;;11.70;4.50;;;;;;;21.87;68.84;101663.94;5056843;28;20040;-73
2023/10/10 13:28:48;;;;;;;11.13;5.00;;;;;;;21.80;69.96;101670.66;5060821;28;20033;-72
2023/10/10 13:31:15;;;;;;;15.50;5.20;;;;;;;21.70;71.20;101671.31;5057073;28;20029;-72
2023/10/10 13:33:40;;;;;;;12.00;4.07;;;;;;;21.68;71.73;101676.19;5058038;28;20042;-72
2023/10/10 13:36:11;;;;;;;9.45;4.35;;;;;;;21.65;69.75;101665.84;5059419;28;20385;-72
2023/10/10 13:38:46;;;;;;;9.15;3.47;;;;;;;21.64;72.85;101664.16;5058107;28;20037;-72
2023/10/10 13:41:11;;;;;;;14.60;5.22;;;;;;;21.64;71.05;101661.44;5048245;28;20045;-73
2023/10/10 13:43:41;;;;;;;11.38;4.20;;;;;;;21.70;69.91;101660.47;5058188;28;20036;-74
2023/10/10 13:46:06;;;;;;;12.35;4.03;;;;;;;21.81;69.00;101661.41;5060101;28;20036;-72
2023/10/10 13:48:36;;;;;;;12.63;3.85;;;;;;;21.93;68.20;101669.44;5048158;28;20497;-69
2023/10/10 13:51:04;;;;;;;9.95;4.30;;;;;;;21.98;69.22;101664.06;5057390;28;20498;-75
2023/10/10 13:53:31;;;;;;;10.40;3.55;;;;;;;22.02;68.84;101662.50;5062714;28;20109;-76
2023/10/10 13:56:00;;;;;;;9.38;4.53;;;;;;;22.06;68.85;101660.91;5061094;28;20036;-73
2023/10/10 13:58:26;;;;;;;12.40;3.38;;;;;;;22.19;65.77;101654.28;5065888;28;20035;-72
2023/10/10 14:01:13;;;;;;;10.30;3.92;;;;;;;22.26;65.33;101653.00;5066083;28;20036;-75
2023/10/10 14:03:46;;;;;;;8.25;3.55;;;;;;;22.39;66.69;101657.22;5034732;28;20040;-74
2023/10/10 14:06:22;;;;;;;14.20;4.68;;;;;;;22.45;67.30;101648.06;5055497;28;20025;-73